sensor_id;sensor_type;location;lat;lon;timestamp;P1;durP1;ratioP1;P2;durP2;ratioP2
35877;SDS011;21982;49.804;24.072;2023-09-08T00:00:36;18.83;;;9.00;;
35877;SDS011;21982;49.804;24.072;2023-09-08T00:03:02;20.75;;;9.75;;
35877;SDS011;21982;49.804;24.072;2023-09-08T00:05:28;15.38;;;8.60;;
35877;SDS011;21982;49.804;24.072;2023-09-08T00:07:53;20.05;;;9.02;;
35877;SDS011;21982;49.804;24.072;2023-09-08T00:10:18;14.73;;;9.13;;
35877;SDS011;21982;49.804;24.072;2023-09-08T00:12:44;19.30;;;8.43;;
35877;SDS011;21982;49.804;24.072;2023-09-08T00:15:09;17.30;;;8.73;;
35877;SDS011;21982;49.804;24.072;2023-09-08T00:17:40;16.00;;;9.13;;
35877;SDS011;21982;49.804;24.072;2023-09-08T00:20:27;18.35;;;9.00;;
35877;SDS011;21982;49.804;24.072;2023-09-08T00:22:53;13.40;;;7.82;;
35877;SDS011;21982;49.804;24.072;2023-09-08T00:25:18;17.17;;;8.23;;
35877;SDS011;21982;49.804;24.072;2023-09-08T00:27:44;18.63;;;8.95;;
35877;SDS011;21982;49.804;24.072;2023-09-08T00:30:09;18.30;;;9.25;;
35877;SDS011;21982;49.804;24.072;2023-09-08T00:32:35;16.73;;;9.07;;
35877;SDS011;21982;49.804;24.072;2023-09-08T00:35:01;19.88;;;9.43;;
35877;SDS011;21982;49.804;24.072;2023-09-08T00:37:26;17.67;;;9.27;;
35877;SDS011;21982;49.804;24.072;2023-09-08T00:39:52;14.75;;;7.82;;
35877;SDS011;21982;49.804;24.072;2023-09-08T00:42:17;18.08;;;8.68;;
35877;SDS011;21982;49.804;24.072;2023-09-08T00:44:42;18.10;;;8.38;;
35877;SDS011;21982;49.804;24.072;2023-09-08T00:47:08;17.40;;;8.70;;
35877;SDS011;21982;49.804;24.072;2023-09-08T00:49:33;15.52;;;7.97;;
35877;SDS011;21982;49.804;24.072;2023-09-08T00:51:59;15.70;;;8.48;;
35877;SDS011;21982;49.804;24.072;2023-09-08T00:54:24;15.65;;;8.02;;
35877;SDS011;21982;49.804;24.072;2023-09-08T00:56:52;17.13;;;7.75;;
35877;SDS011;21982;49.804;24.072;2023-09-08T00:59:21;17.38;;;8.27;;
35877;SDS011;21982;49.804;24.072;2023-09-08T01:01:47;16.13;;;8.65;;
35877;SDS011;21982;49.804;24.072;2023-09-08T01:04:12;16.95;;;7.40;;
35877;SDS011;21982;49.804;24.072;2023-09-08T01:06:38;13.40;;;7.20;;
35877;SDS011;21982;49.804;24.072;2023-09-08T01:09:04;15.18;;;7.32;;
35877;SDS011;21982;49.804;24.072;2023-09-08T01:11:29;13.45;;;7.22;;
35877;SDS011;21982;49.804;24.072;2023-09-08T01:13:56;17.38;;;7.85;;
35877;SDS011;21982;49.804;24.072;2023-09-08T01:16:21;16.65;;;7.90;;
35877;SDS011;21982;49.804;24.072;2023-09-08T01:18:46;16.58;;;7.43;;
35877;SDS011;21982;49.804;24.072;2023-09-08T01:26:20;18.83;;;8.30;;
35877;SDS011;21982;49.804;24.072;2023-09-08T01:28:48;14.88;;;7.90;;
35877;SDS011;21982;49.804;24.072;2023-09-08T01:31:14;16.75;;;8.90;;
35877;SDS011;21982;49.804;24.072;2023-09-08T01:33:41;17.58;;;7.55;;
35877;SDS011;21982;49.804;24.072;2023-09-08T01:36:08;18.10;;;8.63;;
35877;SDS011;21982;49.804;24.072;2023-09-08T01:38:33;16.52;;;8.05;;
35877;SDS011;21982;49.804;24.072;2023-09-08T01:40:59;17.65;;;8.82;;
35877;SDS011;21982;49.804;24.072;2023-09-08T01:43:26;15.65;;;8.25;;
35877;SDS011;21982;49.804;24.072;2023-09-08T01:45:52;16.25;;;8.80;;
35877;SDS011;21982;49.804;24.072;2023-09-08T01:48:17;13.40;;;7.45;;
35877;SDS011;21982;49.804;24.072;2023-09-08T01:50:43;17.02;;;8.00;;
35877;SDS011;21982;49.804;24.072;2023-09-08T01:53:08;16.73;;;8.13;;
35877;SDS011;21982;49.804;24.072;2023-09-08T01:55:34;14.00;;;7.45;;
35877;SDS011;21982;49.804;24.072;2023-09-08T01:57:59;18.40;;;8.88;;
35877;SDS011;21982;49.804;24.072;2023-09-08T02:00:24;17.02;;;8.82;;
35877;SDS011;21982;49.804;24.072;2023-09-08T02:02:50;18.95;;;8.75;;
35877;SDS011;21982;49.804;24.072;2023-09-08T02:05:16;15.95;;;8.40;;
35877;SDS011;21982;49.804;24.072;2023-09-08T02:07:41;15.48;;;8.13;;
35877;SDS011;21982;49.804;24.072;2023-09-08T02:10:07;15.70;;;7.50;;
35877;SDS011;21982;49.804;24.072;2023-09-08T02:12:32;13.77;;;7.53;;
35877;SDS011;21982;49.804;24.072;2023-09-08T02:14:58;12.57;;;7.05;;
35877;SDS011;21982;49.804;24.072;2023-09-08T02:17:24;13.98;;;6.65;;
35877;SDS011;21982;49.804;24.072;2023-09-08T02:19:50;12.82;;;5.75;;
35877;SDS011;21982;49.804;24.072;2023-09-08T02:22:15;14.48;;;7.07;;
35877;SDS011;21982;49.804;24.072;2023-09-08T02:24:41;14.70;;;6.38;;
35877;SDS011;21982;49.804;24.072;2023-09-08T02:27:06;15.18;;;6.20;;
35877;SDS011;21982;49.804;24.072;2023-09-08T02:29:32;14.88;;;6.57;;
35877;SDS011;21982;49.804;24.072;2023-09-08T02:31:57;11.23;;;6.72;;
35877;SDS011;21982;49.804;24.072;2023-09-08T02:34:22;12.82;;;7.47;;
35877;SDS011;21982;49.804;24.072;2023-09-08T02:36:48;15.45;;;7.47;;
35877;SDS011;21982;49.804;24.072;2023-09-08T02:39:15;14.98;;;7.00;;
35877;SDS011;21982;49.804;24.072;2023-09-08T02:41:41;12.48;;;8.13;;
35877;SDS011;21982;49.804;24.072;2023-09-08T02:44:06;14.00;;;6.85;;
35877;SDS011;21982;49.804;24.072;2023-09-08T02:46:32;13.90;;;6.32;;
35877;SDS011;21982;49.804;24.072;2023-09-08T02:48:57;13.82;;;6.47;;
35877;SDS011;21982;49.804;24.072;2023-09-08T02:51:22;18.13;;;6.15;;
35877;SDS011;21982;49.804;24.072;2023-09-08T02:53:48;12.55;;;6.28;;
35877;SDS011;21982;49.804;24.072;2023-09-08T02:56:13;14.55;;;6.90;;
35877;SDS011;21982;49.804;24.072;2023-09-08T02:58:39;13.20;;;6.47;;
35877;SDS011;21982;49.804;24.072;2023-09-08T03:03:38;16.67;;;7.70;;
35877;SDS011;21982;49.804;24.072;2023-09-08T03:06:04;12.43;;;6.82;;
35877;SDS011;21982;49.804;24.072;2023-09-08T03:08:29;15.35;;;6.70;;
35877;SDS011;21982;49.804;24.072;2023-09-08T03:10:56;15.60;;;7.97;;
35877;SDS011;21982;49.804;24.072;2023-09-08T03:13:22;14.65;;;6.60;;
35877;SDS011;21982;49.804;24.072;2023-09-08T03:15:47;17.60;;;7.68;;
35877;SDS011;21982;49.804;24.072;2023-09-08T03:18:13;13.00;;;6.32;;
35877;SDS011;21982;49.804;24.072;2023-09-08T03:20:38;14.80;;;7.43;;
35877;SDS011;21982;49.804;24.072;2023-09-08T03:23:05;15.23;;;6.20;;
35877;SDS011;21982;49.804;24.072;2023-09-08T03:25:31;16.38;;;7.05;;
35877;SDS011;21982;49.804;24.072;2023-09-08T03:27:56;13.02;;;6.95;;
35877;SDS011;21982;49.804;24.072;2023-09-08T03:30:21;17.30;;;10.02;;
35877;SDS011;21982;49.804;24.072;2023-09-08T03:32:47;13.85;;;7.07;;
35877;SDS011;21982;49.804;24.072;2023-09-08T03:35:12;13.23;;;7.78;;
35877;SDS011;21982;49.804;24.072;2023-09-08T03:37:39;13.48;;;6.93;;
35877;SDS011;21982;49.804;24.072;2023-09-08T03:40:05;12.25;;;6.68;;
35877;SDS011;21982;49.804;24.072;2023-09-08T03:42:31;14.02;;;8.32;;
35877;SDS011;21982;49.804;24.072;2023-09-08T03:44:57;13.82;;;7.53;;
35877;SDS011;21982;49.804;24.072;2023-09-08T03:47:22;13.10;;;7.63;;
35877;SDS011;21982;49.804;24.072;2023-09-08T03:49:47;14.52;;;8.00;;
35877;SDS011;21982;49.804;24.072;2023-09-08T03:52:13;15.02;;;7.85;;
35877;SDS011;21982;49.804;24.072;2023-09-08T03:54:38;14.95;;;6.55;;
35877;SDS011;21982;49.804;24.072;2023-09-08T03:57:04;14.30;;;7.20;;
35877;SDS011;21982;49.804;24.072;2023-09-08T03:59:29;13.98;;;7.28;;
35877;SDS011;21982;49.804;24.072;2023-09-08T04:01:55;14.50;;;7.22;;
35877;SDS011;21982;49.804;24.072;2023-09-08T04:04:20;13.98;;;7.15;;
35877;SDS011;21982;49.804;24.072;2023-09-08T04:06:46;15.80;;;7.30;;
35877;SDS011;21982;49.804;24.072;2023-09-08T04:09:11;14.27;;;6.18;;
35877;SDS011;21982;49.804;24.072;2023-09-08T04:11:36;12.18;;;6.47;;
35877;SDS011;21982;49.804;24.072;2023-09-08T04:14:02;13.27;;;6.60;;
35877;SDS011;21982;49.804;24.072;2023-09-08T04:16:29;16.30;;;8.02;;
35877;SDS011;21982;49.804;24.072;2023-09-08T04:19:01;13.38;;;6.70;;
35877;SDS011;21982;49.804;24.072;2023-09-08T04:21:28;11.55;;;6.43;;
35877;SDS011;21982;49.804;24.072;2023-09-08T04:23:54;11.90;;;6.07;;
35877;SDS011;21982;49.804;24.072;2023-09-08T04:26:19;13.57;;;6.47;;
35877;SDS011;21982;49.804;24.072;2023-09-08T04:28:45;15.60;;;7.00;;
35877;SDS011;21982;49.804;24.072;2023-09-08T04:31:10;11.95;;;6.50;;
35877;SDS011;21982;49.804;24.072;2023-09-08T04:33:36;17.13;;;7.38;;
35877;SDS011;21982;49.804;24.072;2023-09-08T04:36:01;13.70;;;6.93;;
35877;SDS011;21982;49.804;24.072;2023-09-08T04:38:26;16.50;;;7.50;;
35877;SDS011;21982;49.804;24.072;2023-09-08T04:40:52;13.00;;;6.85;;
35877;SDS011;21982;49.804;24.072;2023-09-08T04:43:17;12.02;;;6.45;;
35877;SDS011;21982;49.804;24.072;2023-09-08T04:45:43;12.23;;;6.25;;
35877;SDS011;21982;49.804;24.072;2023-09-08T04:48:08;12.00;;;5.93;;
35877;SDS011;21982;49.804;24.072;2023-09-08T04:50:33;14.52;;;6.43;;
35877;SDS011;21982;49.804;24.072;2023-09-08T04:53:01;16.77;;;7.25;;
35877;SDS011;21982;49.804;24.072;2023-09-08T04:55:28;13.52;;;6.13;;
35877;SDS011;21982;49.804;24.072;2023-09-08T04:57:53;13.43;;;6.25;;
35877;SDS011;21982;49.804;24.072;2023-09-08T05:00:19;10.68;;;5.82;;
35877;SDS011;21982;49.804;24.072;2023-09-08T05:02:44;15.32;;;6.50;;
35877;SDS011;21982;49.804;24.072;2023-09-08T05:05:10;13.65;;;6.22;;
35877;SDS011;21982;49.804;24.072;2023-09-08T05:07:35;11.70;;;6.15;;
35877;SDS011;21982;49.804;24.072;2023-09-08T05:10:01;13.60;;;6.20;;
35877;SDS011;21982;49.804;24.072;2023-09-08T05:12:27;13.63;;;5.53;;
35877;SDS011;21982;49.804;24.072;2023-09-08T05:14:53;12.75;;;5.40;;
35877;SDS011;21982;49.804;24.072;2023-09-08T05:17:22;13.63;;;5.60;;
35877;SDS011;21982;49.804;24.072;2023-09-08T05:19:49;13.00;;;6.20;;
35877;SDS011;21982;49.804;24.072;2023-09-08T05:22:14;10.88;;;6.00;;
35877;SDS011;21982;49.804;24.072;2023-09-08T05:24:40;15.10;;;6.45;;
35877;SDS011;21982;49.804;24.072;2023-09-08T05:27:06;14.23;;;6.35;;
35877;SDS011;21982;49.804;24.072;2023-09-08T05:29:31;12.93;;;6.03;;
35877;SDS011;21982;49.804;24.072;2023-09-08T05:31:57;13.27;;;5.80;;
35877;SDS011;21982;49.804;24.072;2023-09-08T05:34:22;16.20;;;6.57;;
35877;SDS011;21982;49.804;24.072;2023-09-08T05:36:47;16.92;;;6.43;;
35877;SDS011;21982;49.804;24.072;2023-09-08T05:39:14;13.65;;;5.82;;
35877;SDS011;21982;49.804;24.072;2023-09-08T05:41:40;11.13;;;5.47;;
35877;SDS011;21982;49.804;24.072;2023-09-08T05:44:05;14.43;;;6.63;;
35877;SDS011;21982;49.804;24.072;2023-09-08T05:46:31;12.13;;;5.72;;
35877;SDS011;21982;49.804;24.072;2023-09-08T05:48:56;12.10;;;5.55;;
35877;SDS011;21982;49.804;24.072;2023-09-08T05:51:22;14.32;;;6.03;;
35877;SDS011;21982;49.804;24.072;2023-09-08T05:53:47;10.65;;;6.18;;
35877;SDS011;21982;49.804;24.072;2023-09-08T05:56:13;13.75;;;6.20;;
35877;SDS011;21982;49.804;24.072;2023-09-08T05:58:38;22.67;;;8.00;;
35877;SDS011;21982;49.804;24.072;2023-09-08T06:01:03;15.25;;;7.18;;
35877;SDS011;21982;49.804;24.072;2023-09-08T06:03:29;14.15;;;7.65;;
35877;SDS011;21982;49.804;24.072;2023-09-08T06:05:55;12.63;;;5.72;;
35877;SDS011;21982;49.804;24.072;2023-09-08T06:08:21;13.43;;;6.10;;
35877;SDS011;21982;49.804;24.072;2023-09-08T06:10:46;11.07;;;5.50;;
35877;SDS011;21982;49.804;24.072;2023-09-08T06:13:12;22.58;;;6.80;;
35877;SDS011;21982;49.804;24.072;2023-09-08T06:15:37;12.48;;;7.15;;
35877;SDS011;21982;49.804;24.072;2023-09-08T06:18:03;12.23;;;5.63;;
35877;SDS011;21982;49.804;24.072;2023-09-08T06:20:30;12.27;;;6.25;;
35877;SDS011;21982;49.804;24.072;2023-09-08T06:22:55;12.07;;;5.35;;
35877;SDS011;21982;49.804;24.072;2023-09-08T06:25:22;9.63;;;5.25;;
35877;SDS011;21982;49.804;24.072;2023-09-08T06:27:48;11.48;;;5.35;;
35877;SDS011;21982;49.804;24.072;2023-09-08T06:30:17;11.57;;;6.00;;
35877;SDS011;21982;49.804;24.072;2023-09-08T06:32:43;12.55;;;5.90;;
35877;SDS011;21982;49.804;24.072;2023-09-08T06:35:08;16.23;;;6.70;;
35877;SDS011;21982;49.804;24.072;2023-09-08T06:37:37;11.05;;;6.05;;
35877;SDS011;21982;49.804;24.072;2023-09-08T06:40:03;17.95;;;5.82;;
35877;SDS011;21982;49.804;24.072;2023-09-08T06:42:29;12.20;;;5.50;;
35877;SDS011;21982;49.804;24.072;2023-09-08T06:44:55;9.98;;;5.82;;
35877;SDS011;21982;49.804;24.072;2023-09-08T06:47:20;12.73;;;6.00;;
35877;SDS011;21982;49.804;24.072;2023-09-08T06:49:46;13.88;;;5.65;;
35877;SDS011;21982;49.804;24.072;2023-09-08T06:52:12;13.77;;;5.47;;
35877;SDS011;21982;49.804;24.072;2023-09-08T06:54:37;10.82;;;5.43;;
35877;SDS011;21982;49.804;24.072;2023-09-08T06:57:03;13.55;;;5.60;;
35877;SDS011;21982;49.804;24.072;2023-09-08T06:59:28;11.30;;;6.10;;
35877;SDS011;21982;49.804;24.072;2023-09-08T07:01:54;11.77;;;5.40;;
35877;SDS011;21982;49.804;24.072;2023-09-08T07:04:19;10.80;;;5.90;;
35877;SDS011;21982;49.804;24.072;2023-09-08T07:06:44;13.57;;;5.78;;
35877;SDS011;21982;49.804;24.072;2023-09-08T07:09:11;14.55;;;6.72;;
35877;SDS011;21982;49.804;24.072;2023-09-08T07:11:37;11.00;;;5.80;;
35877;SDS011;21982;49.804;24.072;2023-09-08T07:14:02;12.75;;;5.78;;
35877;SDS011;21982;49.804;24.072;2023-09-08T07:16:28;11.23;;;6.57;;
35877;SDS011;21982;49.804;24.072;2023-09-08T07:18:53;16.33;;;6.93;;
35877;SDS011;21982;49.804;24.072;2023-09-08T07:21:19;16.75;;;6.13;;
35877;SDS011;21982;49.804;24.072;2023-09-08T07:23:44;15.98;;;5.97;;
35877;SDS011;21982;49.804;24.072;2023-09-08T07:26:10;13.20;;;7.15;;
35877;SDS011;21982;49.804;24.072;2023-09-08T07:28:35;13.63;;;6.90;;
35877;SDS011;21982;49.804;24.072;2023-09-08T07:31:04;16.15;;;7.82;;
35877;SDS011;21982;49.804;24.072;2023-09-08T07:33:30;13.68;;;5.97;;
35877;SDS011;21982;49.804;24.072;2023-09-08T07:35:55;13.65;;;6.45;;
35877;SDS011;21982;49.804;24.072;2023-09-08T07:38:21;11.18;;;5.90;;
35877;SDS011;21982;49.804;24.072;2023-09-08T07:40:46;13.82;;;5.65;;
35877;SDS011;21982;49.804;24.072;2023-09-08T07:43:12;9.77;;;5.10;;
35877;SDS011;21982;49.804;24.072;2023-09-08T07:45:37;10.10;;;6.22;;
35877;SDS011;21982;49.804;24.072;2023-09-08T07:48:05;8.82;;;5.32;;
35877;SDS011;21982;49.804;24.072;2023-09-08T07:50:31;13.85;;;5.82;;
35877;SDS011;21982;49.804;24.072;2023-09-08T07:52:56;11.35;;;5.97;;
35877;SDS011;21982;49.804;24.072;2023-09-08T07:55:22;8.75;;;5.15;;
35877;SDS011;21982;49.804;24.072;2023-09-08T07:57:49;10.98;;;5.32;;
35877;SDS011;21982;49.804;24.072;2023-09-08T08:00:16;10.95;;;5.10;;
35877;SDS011;21982;49.804;24.072;2023-09-08T08:02:46;11.00;;;4.75;;
35877;SDS011;21982;49.804;24.072;2023-09-08T08:05:16;11.05;;;4.72;;
35877;SDS011;21982;49.804;24.072;2023-09-08T08:07:42;23.63;;;5.82;;
35877;SDS011;21982;49.804;24.072;2023-09-08T08:10:09;12.25;;;4.90;;
35877;SDS011;21982;49.804;24.072;2023-09-08T08:12:35;10.73;;;6.13;;
35877;SDS011;21982;49.804;24.072;2023-09-08T08:15:04;16.98;;;5.68;;
35877;SDS011;21982;49.804;24.072;2023-09-08T08:17:30;11.63;;;5.10;;
35877;SDS011;21982;49.804;24.072;2023-09-08T08:19:56;9.10;;;4.00;;
35877;SDS011;21982;49.804;24.072;2023-09-08T08:22:25;9.57;;;4.53;;
35877;SDS011;21982;49.804;24.072;2023-09-08T08:24:50;9.25;;;3.97;;
35877;SDS011;21982;49.804;24.072;2023-09-08T08:27:16;9.50;;;4.85;;
35877;SDS011;21982;49.804;24.072;2023-09-08T08:29:41;12.82;;;5.38;;
35877;SDS011;21982;49.804;24.072;2023-09-08T08:32:06;9.00;;;4.38;;
35877;SDS011;21982;49.804;24.072;2023-09-08T08:34:32;8.73;;;4.72;;
35877;SDS011;21982;49.804;24.072;2023-09-08T08:36:57;11.93;;;4.32;;
35877;SDS011;21982;49.804;24.072;2023-09-08T08:39:23;7.63;;;4.68;;
35877;SDS011;21982;49.804;24.072;2023-09-08T08:41:48;8.52;;;4.88;;
35877;SDS011;21982;49.804;24.072;2023-09-08T08:44:13;10.52;;;4.85;;
35877;SDS011;21982;49.804;24.072;2023-09-08T08:46:41;8.85;;;3.90;;
35877;SDS011;21982;49.804;24.072;2023-09-08T08:49:08;7.30;;;4.25;;
35877;SDS011;21982;49.804;24.072;2023-09-08T08:51:35;8.25;;;4.20;;
35877;SDS011;21982;49.804;24.072;2023-09-08T08:54:02;6.82;;;3.90;;
35877;SDS011;21982;49.804;24.072;2023-09-08T08:56:31;8.15;;;4.10;;
35877;SDS011;21982;49.804;24.072;2023-09-08T08:58:57;7.50;;;4.10;;
35877;SDS011;21982;49.804;24.072;2023-09-08T09:01:23;6.95;;;3.78;;
35877;SDS011;21982;49.804;24.072;2023-09-08T09:03:56;10.13;;;3.75;;
35877;SDS011;21982;49.804;24.072;2023-09-08T09:06:23;8.63;;;4.22;;
35877;SDS011;21982;49.804;24.072;2023-09-08T09:08:48;8.40;;;3.35;;
35877;SDS011;21982;49.804;24.072;2023-09-08T09:11:14;7.40;;;2.83;;
35877;SDS011;21982;49.804;24.072;2023-09-08T09:13:39;8.35;;;2.92;;
35877;SDS011;21982;49.804;24.072;2023-09-08T09:16:05;4.80;;;3.00;;
35877;SDS011;21982;49.804;24.072;2023-09-08T09:18:35;7.25;;;2.63;;
35877;SDS011;21982;49.804;24.072;2023-09-08T09:21:20;5.45;;;2.38;;
35877;SDS011;21982;49.804;24.072;2023-09-08T09:23:46;6.38;;;2.70;;
35877;SDS011;21982;49.804;24.072;2023-09-08T09:26:12;5.40;;;2.50;;
35877;SDS011;21982;49.804;24.072;2023-09-08T09:28:48;8.23;;;2.83;;
35877;SDS011;21982;49.804;24.072;2023-09-08T09:31:14;6.18;;;2.35;;
35877;SDS011;21982;49.804;24.072;2023-09-08T09:33:40;4.85;;;2.38;;
35877;SDS011;21982;49.804;24.072;2023-09-08T09:36:05;4.57;;;2.13;;
35877;SDS011;21982;49.804;24.072;2023-09-08T09:38:31;4.78;;;2.17;;
35877;SDS011;21982;49.804;24.072;2023-09-08T09:40:59;4.85;;;2.58;;
35877;SDS011;21982;49.804;24.072;2023-09-08T09:43:25;5.07;;;2.50;;
35877;SDS011;21982;49.804;24.072;2023-09-08T09:45:53;3.95;;;2.10;;
35877;SDS011;21982;49.804;24.072;2023-09-08T09:48:19;4.03;;;2.38;;
35877;SDS011;21982;49.804;24.072;2023-09-08T09:50:45;4.53;;;2.47;;
35877;SDS011;21982;49.804;24.072;2023-09-08T09:53:14;6.68;;;2.63;;
35877;SDS011;21982;49.804;24.072;2023-09-08T09:55:42;5.60;;;2.55;;
35877;SDS011;21982;49.804;24.072;2023-09-08T09:58:09;6.95;;;3.00;;
35877;SDS011;21982;49.804;24.072;2023-09-08T10:00:37;6.03;;;2.42;;
35877;SDS011;21982;49.804;24.072;2023-09-08T10:03:05;5.25;;;2.60;;
35877;SDS011;21982;49.804;24.072;2023-09-08T10:05:31;6.38;;;2.20;;
35877;SDS011;21982;49.804;24.072;2023-09-08T10:07:57;5.18;;;2.65;;
35877;SDS011;21982;49.804;24.072;2023-09-08T10:10:23;6.57;;;2.90;;
35877;SDS011;21982;49.804;24.072;2023-09-08T10:12:55;5.50;;;2.40;;
35877;SDS011;21982;49.804;24.072;2023-09-08T10:15:22;9.68;;;2.80;;
35877;SDS011;21982;49.804;24.072;2023-09-08T10:17:53;4.85;;;2.53;;
35877;SDS011;21982;49.804;24.072;2023-09-08T10:20:26;5.03;;;2.38;;
35877;SDS011;21982;49.804;24.072;2023-09-08T10:23:27;6.38;;;2.35;;
35877;SDS011;21982;49.804;24.072;2023-09-08T10:25:50;5.32;;;2.60;;
35877;SDS011;21982;49.804;24.072;2023-09-08T10:28:22;5.80;;;2.50;;
35877;SDS011;21982;49.804;24.072;2023-09-08T10:30:47;6.55;;;2.67;;
35877;SDS011;21982;49.804;24.072;2023-09-08T10:33:14;6.15;;;2.08;;
35877;SDS011;21982;49.804;24.072;2023-09-08T10:35:40;4.53;;;2.47;;
35877;SDS011;21982;49.804;24.072;2023-09-08T10:43:42;5.30;;;2.58;;
35877;SDS011;21982;49.804;24.072;2023-09-08T10:46:08;4.47;;;2.08;;
35877;SDS011;21982;49.804;24.072;2023-09-08T10:48:44;7.82;;;2.90;;
35877;SDS011;21982;49.804;24.072;2023-09-08T10:51:13;7.07;;;2.53;;
35877;SDS011;21982;49.804;24.072;2023-09-08T10:53:39;6.97;;;3.65;;
35877;SDS011;21982;49.804;24.072;2023-09-08T10:56:05;7.20;;;2.38;;
35877;SDS011;21982;49.804;24.072;2023-09-08T10:58:31;8.63;;;2.90;;
35877;SDS011;21982;49.804;24.072;2023-09-08T11:01:03;11.73;;;3.72;;
35877;SDS011;21982;49.804;24.072;2023-09-08T11:06:07;4.88;;;2.40;;
35877;SDS011;21982;49.804;24.072;2023-09-08T11:08:33;6.05;;;3.10;;
35877;SDS011;21982;49.804;24.072;2023-09-08T11:11:02;4.85;;;2.45;;
35877;SDS011;21982;49.804;24.072;2023-09-08T11:13:28;3.53;;;2.28;;
35877;SDS011;21982;49.804;24.072;2023-09-08T11:15:55;7.28;;;2.60;;
35877;SDS011;21982;49.804;24.072;2023-09-08T11:18:27;4.13;;;2.00;;
35877;SDS011;21982;49.804;24.072;2023-09-08T11:21:02;5.15;;;2.05;;
35877;SDS011;21982;49.804;24.072;2023-09-08T11:23:32;5.03;;;2.33;;
35877;SDS011;21982;49.804;24.072;2023-09-08T11:25:58;3.85;;;2.20;;
35877;SDS011;21982;49.804;24.072;2023-09-08T11:28:25;4.15;;;1.98;;
35877;SDS011;21982;49.804;24.072;2023-09-08T11:30:54;6.20;;;2.97;;
35877;SDS011;21982;49.804;24.072;2023-09-08T11:33:21;5.35;;;2.80;;
35877;SDS011;21982;49.804;24.072;2023-09-08T11:35:54;4.88;;;2.70;;
35877;SDS011;21982;49.804;24.072;2023-09-08T11:38:26;8.60;;;3.10;;
35877;SDS011;21982;49.804;24.072;2023-09-08T11:40:53;6.50;;;3.08;;
35877;SDS011;21982;49.804;24.072;2023-09-08T11:43:19;5.50;;;2.85;;
35877;SDS011;21982;49.804;24.072;2023-09-08T11:45:44;7.15;;;3.03;;
35877;SDS011;21982;49.804;24.072;2023-09-08T11:48:10;5.97;;;2.88;;
35877;SDS011;21982;49.804;24.072;2023-09-08T11:50:35;5.00;;;2.65;;
35877;SDS011;21982;49.804;24.072;2023-09-08T11:53:01;9.95;;;2.50;;
35877;SDS011;21982;49.804;24.072;2023-09-08T11:55:27;5.95;;;2.72;;
35877;SDS011;21982;49.804;24.072;2023-09-08T11:57:54;8.23;;;3.15;;
35877;SDS011;21982;49.804;24.072;2023-09-08T12:00:25;6.50;;;3.10;;
35877;SDS011;21982;49.804;24.072;2023-09-08T12:02:51;6.03;;;2.45;;
35877;SDS011;21982;49.804;24.072;2023-09-08T12:07:46;5.35;;;2.35;;
35877;SDS011;21982;49.804;24.072;2023-09-08T12:10:11;4.32;;;2.60;;
35877;SDS011;21982;49.804;24.072;2023-09-08T12:12:41;4.50;;;2.40;;
35877;SDS011;21982;49.804;24.072;2023-09-08T12:15:08;5.65;;;2.47;;
35877;SDS011;21982;49.804;24.072;2023-09-08T12:17:48;4.40;;;2.35;;
35877;SDS011;21982;49.804;24.072;2023-09-08T12:20:14;7.15;;;2.67;;
35877;SDS011;21982;49.804;24.072;2023-09-08T12:22:49;5.70;;;3.10;;
35877;SDS011;21982;49.804;24.072;2023-09-08T12:27:41;6.30;;;2.60;;
35877;SDS011;21982;49.804;24.072;2023-09-08T12:30:07;6.10;;;3.03;;
35877;SDS011;21982;49.804;24.072;2023-09-08T12:32:34;6.50;;;2.83;;
35877;SDS011;21982;49.804;24.072;2023-09-08T12:35:02;6.80;;;2.92;;
35877;SDS011;21982;49.804;24.072;2023-09-08T12:37:29;4.40;;;2.33;;
35877;SDS011;21982;49.804;24.072;2023-09-08T12:39:55;6.20;;;2.92;;
35877;SDS011;21982;49.804;24.072;2023-09-08T12:42:21;5.68;;;2.20;;
35877;SDS011;21982;49.804;24.072;2023-09-08T12:44:50;6.68;;;3.03;;
35877;SDS011;21982;49.804;24.072;2023-09-08T12:47:17;5.78;;;3.13;;
35877;SDS011;21982;49.804;24.072;2023-09-08T12:49:42;5.45;;;2.65;;
35877;SDS011;21982;49.804;24.072;2023-09-08T12:52:08;4.97;;;2.63;;
35877;SDS011;21982;49.804;24.072;2023-09-08T12:54:34;4.88;;;2.55;;
35877;SDS011;21982;49.804;24.072;2023-09-08T12:57:00;6.35;;;2.88;;
35877;SDS011;21982;49.804;24.072;2023-09-08T12:59:25;4.95;;;2.72;;
35877;SDS011;21982;49.804;24.072;2023-09-08T13:01:50;9.93;;;2.97;;
35877;SDS011;21982;49.804;24.072;2023-09-08T13:04:16;7.28;;;3.17;;
35877;SDS011;21982;49.804;24.072;2023-09-08T13:06:41;6.00;;;2.53;;
35877;SDS011;21982;49.804;24.072;2023-09-08T13:09:07;7.78;;;3.22;;
35877;SDS011;21982;49.804;24.072;2023-09-08T13:11:33;7.88;;;2.90;;
35877;SDS011;21982;49.804;24.072;2023-09-08T13:13:58;7.38;;;2.83;;
35877;SDS011;21982;49.804;24.072;2023-09-08T13:16:24;5.60;;;2.88;;
35877;SDS011;21982;49.804;24.072;2023-09-08T13:18:49;4.45;;;2.42;;
35877;SDS011;21982;49.804;24.072;2023-09-08T13:21:16;6.32;;;2.88;;
35877;SDS011;21982;49.804;24.072;2023-09-08T13:23:41;7.82;;;3.00;;
35877;SDS011;21982;49.804;24.072;2023-09-08T13:26:07;5.63;;;2.80;;
35877;SDS011;21982;49.804;24.072;2023-09-08T13:28:32;5.07;;;2.65;;
35877;SDS011;21982;49.804;24.072;2023-09-08T13:30:58;7.63;;;3.42;;
35877;SDS011;21982;49.804;24.072;2023-09-08T13:33:23;7.00;;;2.78;;
35877;SDS011;21982;49.804;24.072;2023-09-08T13:35:49;5.93;;;2.70;;
35877;SDS011;21982;49.804;24.072;2023-09-08T13:38:14;5.45;;;2.92;;
35877;SDS011;21982;49.804;24.072;2023-09-08T13:40:39;4.93;;;2.97;;
35877;SDS011;21982;49.804;24.072;2023-09-08T13:43:06;8.60;;;4.13;;
35877;SDS011;21982;49.804;24.072;2023-09-08T13:45:31;8.30;;;3.80;;
35877;SDS011;21982;49.804;24.072;2023-09-08T13:47:57;7.97;;;3.42;;
35877;SDS011;21982;49.804;24.072;2023-09-08T13:50:22;9.95;;;4.35;;
35877;SDS011;21982;49.804;24.072;2023-09-08T13:52:48;10.63;;;4.50;;
35877;SDS011;21982;49.804;24.072;2023-09-08T13:55:14;10.90;;;5.40;;
35877;SDS011;21982;49.804;24.072;2023-09-08T13:57:39;9.63;;;4.50;;
35877;SDS011;21982;49.804;24.072;2023-09-08T14:00:05;8.27;;;3.85;;
35877;SDS011;21982;49.804;24.072;2023-09-08T14:02:33;10.25;;;5.13;;
35877;SDS011;21982;49.804;24.072;2023-09-08T14:04:58;10.05;;;4.25;;
35877;SDS011;21982;49.804;24.072;2023-09-08T14:07:24;7.50;;;3.80;;
35877;SDS011;21982;49.804;24.072;2023-09-08T14:09:49;8.48;;;3.55;;
35877;SDS011;21982;49.804;24.072;2023-09-08T14:12:15;8.23;;;3.95;;
35877;SDS011;21982;49.804;24.072;2023-09-08T14:14:41;8.75;;;3.95;;
35877;SDS011;21982;49.804;24.072;2023-09-08T14:17:06;6.68;;;3.55;;
35877;SDS011;21982;49.804;24.072;2023-09-08T14:19:31;8.65;;;3.38;;
35877;SDS011;21982;49.804;24.072;2023-09-08T14:21:57;8.98;;;4.88;;
35877;SDS011;21982;49.804;24.072;2023-09-08T14:24:23;7.68;;;3.70;;
35877;SDS011;21982;49.804;24.072;2023-09-08T14:26:48;7.75;;;3.65;;
35877;SDS011;21982;49.804;24.072;2023-09-08T14:29:15;7.38;;;4.20;;
35877;SDS011;21982;49.804;24.072;2023-09-08T14:31:40;6.28;;;3.88;;
35877;SDS011;21982;49.804;24.072;2023-09-08T14:34:06;6.82;;;4.20;;
35877;SDS011;21982;49.804;24.072;2023-09-08T14:36:31;7.97;;;4.32;;
35877;SDS011;21982;49.804;24.072;2023-09-08T14:38:57;9.18;;;4.80;;
35877;SDS011;21982;49.804;24.072;2023-09-08T14:41:22;9.10;;;3.58;;